Time;durP1;ratioP1;P1;durP2;ratioP2;P2;SDS_P1;SDS_P2;PMS_P1;PMS_P2;Temp;Humidity;BMP_temperature;BMP_pressure;BME280_temperature;BME280_humidity;BME280_pressure;Samples;Min_cycle;Max_cycle;Signal;HPM_P1;HPM_P2
2022/10/09 00:02:17;;;;;;;;;;;11.70;99.90;;;;;;5078652;28;20047;-90
2022/10/09 00:04:43;;;;;;;;;;;11.70;99.90;;;;;;5077315;28;19916;-89
2022/10/09 00:07:08;;;;;;;;;;;11.60;99.90;;;;;;5074435;28;19991;-89
2022/10/09 00:09:34;;;;;;;;;;;11.60;99.90;;;;;;5086718;28;19923;-90
2022/10/09 00:11:59;;;;;;;;;;;11.60;99.90;;;;;;5075211;28;19966;-90
2022/10/09 00:14:25;;;;;;;;;;;11.60;99.90;;;;;;5071668;28;20706;-91
2022/10/09 00:16:52;;;;;;;;;;;11.60;99.90;;;;;;5085298;28;19920;-89
2022/10/09 00:19:18;;;;;;;;;;;11.60;99.90;;;;;;5086689;28;20295;-91
2022/10/09 00:21:43;;;;;;;;;;;11.60;99.90;;;;;;5073825;28;19916;-90
2022/10/09 00:24:09;;;;;;;;;;;11.50;99.90;;;;;;5076314;28;19908;-90
2022/10/09 00:26:34;;;;;;;;;;;11.50;99.90;;;;;;5070342;28;19913;-91
2022/10/09 00:29:00;;;;;;;;;;;11.50;99.90;;;;;;5072343;28;19912;-91
2022/10/09 00:31:26;;;;;;;;;;;11.40;99.90;;;;;;5080697;28;19974;-91
2022/10/09 00:33:51;;;;;;;;;;;11.40;99.90;;;;;;5083428;28;19912;-89
2022/10/09 00:36:19;;;;;;;;;;;11.40;99.90;;;;;;5077717;28;19957;-89
2022/10/09 00:38:44;;;;;;;;;;;11.30;99.90;;;;;;5081995;28;19912;-91
2022/10/09 00:41:13;;;;;;;;;;;11.40;99.90;;;;;;5080731;28;19919;-91
2022/10/09 00:43:44;;;;;;;;;;;11.30;99.90;;;;;;5073104;28;19913;-92
2022/10/09 00:46:32;;;;;;;;;;;11.40;99.90;;;;;;5090048;28;19969;-90
2022/10/09 00:49:03;;;;;;;;;;;11.30;99.90;;;;;;5081163;28;20654;-90
2022/10/09 00:51:30;;;;;;;;;;;11.30;99.90;;;;;;5080402;28;20031;-90
2022/10/09 00:53:55;;;;;;;;;;;11.30;99.90;;;;;;5082799;28;20027;-91
2022/10/09 00:56:21;;;;;;;;;;;11.20;99.90;;;;;;5071349;28;19928;-89
2022/10/09 00:58:50;;;;;;;;;;;11.20;99.90;;;;;;5074996;28;19908;-90
2022/10/09 01:01:15;;;;;;;;;;;11.20;99.90;;;;;;5072869;28;19916;-91
2022/10/09 01:03:41;;;;;;;;;;;11.30;99.90;;;;;;5079311;28;19935;-90
2022/10/09 01:06:08;;;;;;;;;;;11.30;99.90;;;;;;5075071;28;23604;-91
2022/10/09 01:08:43;;;;;;;;;;;11.40;99.90;;;;;;5074101;28;19920;-90
2022/10/09 01:11:32;;;;;;;;;;;11.30;99.90;;;;;;5085198;28;19939;-90
2022/10/09 01:14:11;;;;;;;;;;;11.20;99.90;;;;;;5080828;28;19965;-90
2022/10/09 01:16:40;;;;;;;;;;;11.30;99.90;;;;;;5079425;28;20407;-90
2022/10/09 01:19:25;;;;;;;;;;;11.30;99.90;;;;;;5075328;28;19959;-91
2022/10/09 01:22:02;;;;;;;;;;;11.20;99.90;;;;;;5077812;28;19954;-90
2022/10/09 01:24:30;;;;;;;;;;;11.30;99.90;;;;;;5081106;28;20370;-89
2022/10/09 01:26:55;;;;;;;;;;;11.30;99.90;;;;;;5070312;28;20191;-90
2022/10/09 01:29:22;;;;;;;;;;;11.30;99.90;;;;;;5088146;28;19963;-90
2022/10/09 01:31:49;;;;;;;;;;;11.30;99.90;;;;;;5075446;28;20399;-91
2022/10/09 01:34:16;;;;;;;;;;;11.20;99.90;;;;;;5071087;28;19912;-90
2022/10/09 01:36:43;;;;;;;;;;;11.20;99.90;;;;;;5083823;28;19919;-90
2022/10/09 01:39:10;;;;;;;;;;;11.20;99.90;;;;;;5076674;28;19913;-90
2022/10/09 01:41:36;;;;;;;;;;;11.20;99.90;;;;;;5077188;28;19966;-89
2022/10/09 01:44:02;;;;;;;;;;;11.10;99.90;;;;;;5083215;28;20159;-88
2022/10/09 01:46:29;;;;;;;;;;;11.10;99.90;;;;;;5081490;28;19923;-89
2022/10/09 01:49:00;;;;;;;;;;;11.10;99.90;;;;;;5084561;28;19909;-89
2022/10/09 01:51:28;;;;;;;;;;;11.00;99.90;;;;;;5070658;28;20055;-90
2022/10/09 01:53:59;;;;;;;;;;;11.10;99.90;;;;;;5080642;28;19920;-90
2022/10/09 01:56:29;;;;;;;;;;;11.10;99.90;;;;;;5082732;28;19919;-90
2022/10/09 01:59:00;;;;;;;;;;;11.10;99.90;;;;;;5071903;28;19912;-90
2022/10/09 02:01:28;;;;;;;;;;;11.00;99.90;;;;;;5082200;28;19947;-90
2022/10/09 02:03:55;;;;;;;;;;;11.00;99.90;;;;;;5076989;28;19945;-90
2022/10/09 02:06:21;;;;;;;;;;;11.00;99.90;;;;;;5074850;28;20657;-89
2022/10/09 02:08:49;;;;;;;;;;;11.00;99.90;;;;;;5069893;28;20185;-91
2022/10/09 02:11:14;;;;;;;;;;;11.00;99.90;;;;;;5079223;28;20125;-91
2022/10/09 02:13:40;;;;;;;;;;;11.00;99.90;;;;;;5073544;28;20013;-90
2022/10/09 02:16:06;;;;;;;;;;;11.00;99.90;;;;;;5079827;28;20389;-89
2022/10/09 02:18:36;;;;;;;;;;;10.90;99.90;;;;;;5080095;28;20010;-90
2022/10/09 02:21:04;;;;;;;;;;;10.80;99.90;;;;;;5075197;28;20366;-90
2022/10/09 02:23:30;;;;;;;;;;;10.90;99.90;;;;;;5075992;28;19912;-89
2022/10/09 02:25:56;;;;;;;;;;;10.80;99.90;;;;;;5080615;28;19916;-90
2022/10/09 02:28:22;;;;;;;;;;;10.70;99.90;;;;;;5081108;28;19977;-91
2022/10/09 02:31:26;;;;;;;;;;;10.80;99.90;;;;;;5075018;28;19916;-90
2022/10/09 02:33:58;;;;;;;;;;;10.70;99.90;;;;;;5021279;28;19928;-91
2022/10/09 02:36:24;;;;;;;;;;;10.60;99.90;;;;;;5025010;28;19913;-90
2022/10/09 02:38:50;;;;;;;;;;;10.60;99.90;;;;;;5047722;28;19917;-90
2022/10/09 02:41:16;;;;;;;;;;;10.60;99.90;;;;;;5076623;28;19912;-89
2022/10/09 02:43:41;;;;;;;;;;;10.50;99.90;;;;;;5073102;28;19912;-89
2022/10/09 02:46:07;;;;;;;;;;;10.50;99.90;;;;;;5089096;28;19970;-90
2022/10/09 02:48:32;;;;;;;;;;;10.50;99.90;;;;;;5086880;28;19951;-90
2022/10/09 02:50:58;;;;;;;;;;;10.40;99.90;;;;;;5076677;28;19929;-90
2022/10/09 02:53:24;;;;;;;;;;;10.50;99.90;;;;;;5079574;28;19923;-90
2022/10/09 02:55:49;;;;;;;;;;;10.40;99.90;;;;;;5084462;28;20380;-90
2022/10/09 02:58:15;;;;;;;;;;;10.40;99.90;;;;;;5075808;28;19913;-89
2022/10/09 03:00:40;;;;;;;;;;;10.50;99.90;;;;;;5092754;28;20406;-88
2022/10/09 03:03:06;;;;;;;;;;;10.50;99.90;;;;;;5083224;28;19930;-89
2022/10/09 03:05:31;;;;;;;;;;;10.30;99.90;;;;;;5085475;28;19920;-91
2022/10/09 03:07:57;;;;;;;;;;;10.40;99.90;;;;;;5087320;28;20648;-90
2022/10/09 03:10:23;;;;;;;;;;;10.30;99.90;;;;;;5072751;28;19908;-90
2022/10/09 03:12:48;;;;;;;;;;;10.40;99.90;;;;;;5073973;28;20052;-90
2022/10/09 03:15:14;;;;;;;;;;;10.40;99.90;;;;;;5075666;28;19914;-90
2022/10/09 03:17:40;;;;;;;;;;;10.30;99.90;;;;;;5081123;28;20343;-90
2022/10/09 03:20:06;;;;;;;;;;;10.30;99.90;;;;;;5077909;28;20100;-90
2022/10/09 03:22:31;;;;;;;;;;;10.20;99.90;;;;;;5080346;28;19912;-89
2022/10/09 03:24:57;;;;;;;;;;;10.10;99.90;;;;;;5078545;28;20018;-90
2022/10/09 03:27:22;;;;;;;;;;;10.10;99.90;;;;;;5085814;28;19912;-90
2022/10/09 03:29:48;;;;;;;;;;;10.20;99.90;;;;;;5081969;28;19943;-90
2022/10/09 03:32:13;;;;;;;;;;;10.20;99.90;;;;;;5084011;28;19946;-89
2022/10/09 03:34:39;;;;;;;;;;;10.20;99.90;;;;;;5078305;28;19912;-89
2022/10/09 03:37:05;;;;;;;;;;;10.10;99.90;;;;;;5079864;28;19966;-90
2022/10/09 03:39:31;;;;;;;;;;;10.10;99.90;;;;;;5072176;28;19913;-89
2022/10/09 03:41:56;;;;;;;;;;;10.10;99.90;;;;;;5096597;28;19951;-89
2022/10/09 03:44:22;;;;;;;;;;;10.10;99.90;;;;;;5077943;28;19908;-88
2022/10/09 03:46:47;;;;;;;;;;;10.10;99.90;;;;;;5076570;28;19912;-89
2022/10/09 03:49:13;;;;;;;;;;;10.00;99.90;;;;;;5074548;28;20018;-89
2022/10/09 03:51:39;;;;;;;;;;;10.00;99.90;;;;;;5073798;28;19909;-89
2022/10/09 03:54:04;;;;;;;;;;;10.10;99.90;;;;;;5070452;28;20398;-89
2022/10/09 03:56:30;;;;;;;;;;;10.10;99.90;;;;;;5072153;28;19912;-89
2022/10/09 03:58:55;;;;;;;;;;;10.10;99.90;;;;;;5083955;28;19938;-89
2022/10/09 04:01:21;;;;;;;;;;;10.00;99.90;;;;;;5083398;28;20149;-89
2022/10/09 04:03:46;;;;;;;;;;;10.00;99.90;;;;;;5074132;28;20015;-90
2022/10/09 04:06:12;;;;;;;;;;;10.00;99.90;;;;;;5074407;28;19951;-89
2022/10/09 04:08:38;;;;;;;;;;;10.10;99.90;;;;;;5076849;28;19913;-89
2022/10/09 04:11:03;;;;;;;;;;;10.00;99.90;;;;;;5074556;28;19935;-88
2022/10/09 04:13:29;;;;;;;;;;;10.00;99.90;;;;;;5070043;28;20745;-89
2022/10/09 04:15:55;;;;;;;;;;;10.00;99.90;;;;;;5075564;28;19924;-89
2022/10/09 04:18:20;;;;;;;;;;;9.90;99.90;;;;;;5083605;28;19938;-90
2022/10/09 04:20:50;;;;;;;;;;;9.90;99.90;;;;;;5084862;28;20807;-89
2022/10/09 04:23:16;;;;;;;;;;;9.90;99.90;;;;;;5083338;28;19912;-90
2022/10/09 04:25:41;;;;;;;;;;;9.90;99.90;;;;;;5076813;28;19923;-91
2022/10/09 04:28:07;;;;;;;;;;;9.90;99.90;;;;;;5081498;28;19912;-90
2022/10/09 04:30:32;;;;;;;;;;;9.90;99.90;;;;;;5080628;28;20430;-88
2022/10/09 04:32:58;;;;;;;;;;;9.90;99.90;;;;;;5083333;28;19915;-89
2022/10/09 04:35:23;;;;;;;;;;;9.90;99.90;;;;;;5072968;28;20277;-90
2022/10/09 04:37:49;;;;;;;;;;;9.80;99.90;;;;;;5076476;28;19912;-89
2022/10/09 04:40:15;;;;;;;;;;;9.80;99.90;;;;;;5081755;28;19999;-90
2022/10/09 04:42:40;;;;;;;;;;;9.80;99.90;;;;;;5078176;28;20451;-90
2022/10/09 04:45:06;;;;;;;;;;;9.90;99.90;;;;;;5070986;28;19965;-89
2022/10/09 04:47:32;;;;;;;;;;;9.80;99.90;;;;;;5083031;28;20490;-89
2022/10/09 04:49:58;;;;;;;;;;;9.70;99.90;;;;;;5075205;28;19920;-90
2022/10/09 04:52:24;;;;;;;;;;;9.70;99.90;;;;;;5076470;28;19919;-89
2022/10/09 04:54:50;;;;;;;;;;;9.80;99.90;;;;;;5077694;28;19924;-90
2022/10/09 04:57:15;;;;;;;;;;;9.70;99.90;;;;;;5069861;28;19916;-88
2022/10/09 04:59:41;;;;;;;;;;;9.60;99.90;;;;;;5082517;28;19919;-89
2022/10/09 05:02:06;;;;;;;;;;;9.60;99.90;;;;;;5076165;28;19916;-90
2022/10/09 05:04:32;;;;;;;;;;;9.50;99.90;;;;;;5075159;28;19963;-88
2022/10/09 05:06:57;;;;;;;;;;;9.60;99.90;;;;;;5072522;28;19913;-90
2022/10/09 05:09:23;;;;;;;;;;;9.60;99.90;;;;;;5072930;28;20611;-88
2022/10/09 05:11:49;;;;;;;;;;;9.60;99.90;;;;;;5086698;28;19912;-89
2022/10/09 05:14:14;;;;;;;;;;;9.60;99.90;;;;;;5079836;28;19956;-89
2022/10/09 05:16:40;;;;;;;;;;;9.60;99.90;;;;;;5072888;28;19912;-88
2022/10/09 05:19:05;;;;;;;;;;;9.60;99.90;;;;;;5073862;28;19924;-89
2022/10/09 05:21:31;;;;;;;;;;;9.60;99.90;;;;;;5074624;28;20781;-89
2022/10/09 05:23:56;;;;;;;;;;;9.60;99.90;;;;;;5068802;28;19963;-88
2022/10/09 05:26:23;;;;;;;;;;;9.50;99.90;;;;;;5081825;28;20460;-88
2022/10/09 05:28:48;;;;;;;;;;;9.60;99.90;;;;;;5081143;28;19909;-89
2022/10/09 05:31:18;;;;;;;;;;;9.60;99.90;;;;;;5068665;28;20268;-89
2022/10/09 05:33:44;;;;;;;;;;;9.50;99.90;;;;;;5074937;28;19923;-89
2022/10/09 05:36:10;;;;;;;;;;;9.50;99.90;;;;;;5069240;28;19912;-90
2022/10/09 05:38:36;;;;;;;;;;;9.50;99.90;;;;;;5076738;28;20606;-91
2022/10/09 05:41:03;;;;;;;;;;;9.50;99.90;;;;;;5075450;28;19947;-90
2022/10/09 05:43:30;;;;;;;;;;;9.50;99.90;;;;;;5082496;28;19927;-90
2022/10/09 05:46:03;;;;;;;;;;;9.50;99.90;;;;;;5087018;28;19916;-89
2022/10/09 05:48:28;;;;;;;;;;;9.50;99.90;;;;;;5078555;28;20371;-89
2022/10/09 05:51:04;;;;;;;;;;;9.50;99.90;;;;;;5069470;28;20564;-89
2022/10/09 05:53:29;;;;;;;;;;;9.50;99.90;;;;;;5074268;28;19912;-89
2022/10/09 05:55:55;;;;;;;;;;;9.40;99.90;;;;;;5080832;28;19921;-87
2022/10/09 05:58:20;;;;;;;;;;;9.40;99.90;;;;;;5069635;28;19999;-90
2022/10/09 06:00:46;;;;;;;;;;;9.40;99.90;;;;;;5079164;28;19912;-88
2022/10/09 06:03:11;;;;;;;;;;;9.40;99.90;;;;;;5077257;28;20351;-89
2022/10/09 06:05:37;;;;;;;;;;;9.40;99.90;;;;;;5072996;28;19916;-90
2022/10/09 06:08:02;;;;;;;;;;;9.30;99.90;;;;;;5078313;28;19912;-89
2022/10/09 06:10:28;;;;;;;;;;;9.40;99.90;;;;;;5074943;28;19913;-89
2022/10/09 06:12:55;;;;;;;;;;;9.40;99.90;;;;;;5077012;28;20390;-90
2022/10/09 06:15:20;;;;;;;;;;;9.40;99.90;;;;;;5073775;28;20429;-88
2022/10/09 06:17:46;;;;;;;;;;;9.40;99.90;;;;;;5072952;28;19927;-89
2022/10/09 06:20:11;;;;;;;;;;;9.30;99.90;;;;;;5077502;28;20002;-90
2022/10/09 06:22:37;;;;;;;;;;;9.40;99.90;;;;;;5081931;28;19920;-89
2022/10/09 06:25:02;;;;;;;;;;;9.60;99.90;;;;;;5069193;28;20039;-90
2022/10/09 06:27:28;;;;;;;;;;;9.80;99.90;;;;;;5081335;28;20425;-87
2022/10/09 06:29:54;;;;;;;;;;;10.00;99.90;;;;;;5082124;28;20011;-90
2022/10/09 06:32:20;;;;;;;;;;;10.10;99.90;;;;;;5078207;28;20645;-90
2022/10/09 06:34:45;;;;;;;;;;;10.40;99.90;;;;;;5083536;28;19912;-90
2022/10/09 06:37:11;;;;;;;;;;;10.60;99.90;;;;;;5076846;28;19938;-89
2022/10/09 06:39:37;;;;;;;;;;;10.70;99.90;;;;;;5073052;28;19917;-89
2022/10/09 06:42:03;;;;;;;;;;;10.80;99.90;;;;;;5079330;28;19919;-89
2022/10/09 06:44:28;;;;;;;;;;;11.00;99.90;;;;;;5072526;28;19912;-89
2022/10/09 06:46:54;;;;;;;;;;;11.20;99.90;;;;;;5071048;28;19916;-90
2022/10/09 06:49:20;;;;;;;;;;;11.30;99.90;;;;;;5083149;28;19937;-89
2022/10/09 06:51:45;;;;;;;;;;;11.40;99.90;;;;;;5080724;28;19912;-92
2022/10/09 06:54:13;;;;;;;;;;;11.80;99.90;;;;;;5086210;28;19916;-91
2022/10/09 06:56:38;;;;;;;;;;;11.80;99.90;;;;;;5080835;28;19916;-91
2022/10/09 06:59:05;;;;;;;;;;;12.10;99.90;;;;;;5072699;28;19920;-88
2022/10/09 07:01:31;;;;;;;;;;;12.40;99.90;;;;;;5078209;28;19912;-93
2022/10/09 07:03:59;;;;;;;;;;;12.50;99.90;;;;;;5087260;28;19932;-93
2022/10/09 07:06:29;;;;;;;;;;;12.80;99.90;;;;;;5075079;28;19978;-90
2022/10/09 07:09:02;;;;;;;;;;;12.90;99.90;;;;;;5082443;28;19916;-91
2022/10/09 07:11:33;;;;;;;;;;;13.10;99.90;;;;;;5082906;28;19909;-94
2022/10/09 07:14:00;;;;;;;;;;;13.50;99.90;;;;;;5092601;28;19916;-94
2022/10/09 07:16:27;;;;;;;;;;;13.70;99.90;;;;;;5095514;28;19908;-93
2022/10/09 07:18:53;;;;;;;;;;;13.90;99.90;;;;;;5083906;28;19908;-93
2022/10/09 07:21:19;;;;;;;;;;;14.20;99.90;;;;;;5088964;28;19908;-94
2022/10/09 07:23:45;;;;;;;;;;;14.20;99.90;;;;;;5095131;28;19912;-94
2022/10/09 07:26:16;;;;;;;;;;;14.50;99.90;;;;;;5095733;28;19938;-93
2022/10/09 07:28:42;;;;;;;;;;;14.50;99.90;;;;;;5076696;28;20400;-94
2022/10/09 07:31:08;;;;;;;;;;;14.80;99.90;;;;;;5076500;28;19908;-93
2022/10/09 07:33:34;;;;;;;;;;;15.00;99.90;;;;;;5083446;28;19908;-93
2022/10/09 07:36:01;;;;;;;;;;;15.20;99.90;;;;;;5082968;28;19916;-93
2022/10/09 07:38:27;;;;;;;;;;;15.20;99.90;;;;;;5088894;28;20376;-93
2022/10/09 07:40:53;;;;;;;;;;;15.40;99.90;;;;;;5091717;28;19908;-95
2022/10/09 07:43:18;;;;;;;;;;;15.60;99.90;;;;;;5082392;28;19955;-95
2022/10/09 07:45:44;;;;;;;;;;;15.80;99.60;;;;;;5082176;28;19992;-93
2022/10/09 07:48:10;;;;;;;;;;;15.80;99.70;;;;;;5086386;28;19912;-93
2022/10/09 07:50:35;;;;;;;;;;;16.00;99.00;;;;;;5090812;28;20027;-95
2022/10/09 07:53:01;;;;;;;;;;;16.20;98.20;;;;;;5085939;28;20059;-88
2022/10/09 07:55:27;;;;;;;;;;;16.00;97.90;;;;;;5081599;28;19999;-92
2022/10/09 07:57:52;;;;;;;;;;;16.20;97.90;;;;;;5080183;28;20715;-94
2022/10/09 08:00:18;;;;;;;;;;;16.20;97.90;;;;;;5077270;28;19924;-90
2022/10/09 08:02:44;;;;;;;;;;;16.50;97.30;;;;;;5080769;28;19916;-93
2022/10/09 08:05:14;;;;;;;;;;;16.40;96.80;;;;;;5081682;28;19955;-92
2022/10/09 08:07:43;;;;;;;;;;;16.60;96.90;;;;;;5077158;28;19987;-92
2022/10/09 08:10:08;;;;;;;;;;;16.80;96.50;;;;;;5084613;28;19924;-91
2022/10/09 08:12:34;;;;;;;;;;;17.10;96.60;;;;;;5073658;28;19913;-92
2022/10/09 08:14:59;;;;;;;;;;;16.90;95.80;;;;;;5081610;28;19912;-91
2022/10/09 08:17:25;;;;;;;;;;;17.10;96.70;;;;;;5083236;28;19916;-90
2022/10/09 08:19:51;;;;;;;;;;;17.10;95.40;;;;;;5074256;28;19917;-88
2022/10/09 08:22:16;;;;;;;;;;;17.40;96.20;;;;;;5076494;28;20287;-90
2022/10/09 08:24:42;;;;;;;;;;;17.60;94.50;;;;;;5077494;28;19913;-93
2022/10/09 08:27:07;;;;;;;;;;;17.70;94.60;;;;;;5076851;28;20820;-93
2022/10/09 08:29:33;;;;;;;;;;;18.00;94.70;;;;;;5080400;28;19980;-93
2022/10/09 08:31:58;;;;;;;;;;;17.80;95.10;;;;;;5074339;28;19999;-93
2022/10/09 08:34:24;;;;;;;;;;;18.10;93.80;;;;;;5087782;28;20491;-90
2022/10/09 08:36:50;;;;;;;;;;;18.30;93.60;;;;;;5075493;28;19920;-92
2022/10/09 08:39:16;;;;;;;;;;;18.90;93.10;;;;;;5088628;28;20461;-91
2022/10/09 08:41:50;;;;;;;;;;;18.30;92.70;;;;;;5088704;28;20002;-93
2022/10/09 08:44:15;;;;;;;;;;;18.50;94.00;;;;;;5075437;28;19908;-93
2022/10/09 08:46:44;;;;;;;;;;;18.40;93.40;;;;;;5073983;28;19927;-91
2022/10/09 08:49:16;;;;;;;;;;;18.90;92.80;;;;;;5081134;28;20451;-92
2022/10/09 08:51:45;;;;;;;;;;;18.90;92.30;;;;;;5075045;28;20250;-89
2022/10/09 08:54:18;;;;;;;;;;;18.90;93.40;;;;;;5086187;28;19966;-89
2022/10/09 08:56:45;;;;;;;;;;;19.00;92.60;;;;;;5081756;28;19920;-86
2022/10/09 08:59:11;;;;;;;;;;;18.90;92.50;;;;;;5087753;28;19912;-90
2022/10/09 09:01:43;;;;;;;;;;;19.30;91.50;;;;;;5075392;28;19971;-90
2022/10/09 09:04:12;;;;;;;;;;;19.50;91.50;;;;;;5073513;28;19959;-94
2022/10/09 09:06:37;;;;;;;;;;;19.50;91.60;;;;;;5083434;28;19995;-86
2022/10/09 09:09:12;;;;;;;;;;;19.70;91.80;;;;;;5076767;28;20003;-90
2022/10/09 09:11:44;;;;;;;;;;;19.80;90.80;;;;;;5088591;28;19955;-93
2022/10/09 09:14:36;;;;;;;;;;;20.00;90.50;;;;;;5078358;28;19913;-91
2022/10/09 09:17:07;;;;;;;;;;;20.20;90.10;;;;;;5081312;28;20684;-91
2022/10/09 09:19:39;;;;;;;;;;;20.40;89.90;;;;;;5076140;28;19915;-90
2022/10/09 09:22:08;;;;;;;;;;;20.70;89.50;;;;;;5076741;28;19916;-91
2022/10/09 09:24:41;;;;;;;;;;;20.90;88.50;;;;;;5085289;28;19926;-91
2022/10/09 09:27:12;;;;;;;;;;;20.90;88.30;;;;;;5090654;28;19948;-91
2022/10/09 09:29:40;;;;;;;;;;;20.70;87.90;;;;;;5078280;28;19912;-91
2022/10/09 09:32:10;;;;;;;;;;;20.30;90.20;;;;;;5084280;28;19947;-90
2022/10/09 09:34:37;;;;;;;;;;;20.20;90.00;;;;;;5083226;28;19960;-91
2022/10/09 09:37:02;;;;;;;;;;;19.90;91.00;;;;;;5073068;28;20322;-90
2022/10/09 09:39:30;;;;;;;;;;;19.90;90.90;;;;;;5088313;28;19998;-91
2022/10/09 09:41:59;;;;;;;;;;;19.80;90.90;;;;;;5083034;28;19929;-90
2022/10/09 09:44:24;;;;;;;;;;;19.70;90.90;;;;;;5078373;28;19908;-91
2022/10/09 09:46:50;;;;;;;;;;;19.50;91.40;;;;;;5076361;28;20593;-91
2022/10/09 09:49:20;;;;;;;;;;;19.50;92.10;;;;;;5074599;28;20344;-90
2022/10/09 09:51:47;;;;;;;;;;;19.50;91.60;;;;;;5070016;28;19966;-92
2022/10/09 09:54:26;;;;;;;;;;;19.50;92.50;;;;;;5081540;28;19947;-89
2022/10/09 09:56:54;;;;;;;;;;;19.60;92.10;;;;;;5080909;28;19983;-89
2022/10/09 09:59:30;;;;;;;;;;;19.60;93.00;;;;;;5071440;28;19917;-90
2022/10/09 10:02:01;;;;;;;;;;;19.60;92.90;;;;;;5079379;28;19923;-90
2022/10/09 10:04:27;;;;;;;;;;;19.70;92.40;;;;;;5078371;28;19966;-87
2022/10/09 10:06:53;;;;;;;;;;;19.60;92.10;;;;;;5078750;28;20420;-87
2022/10/09 10:09:19;;;;;;;;;;;19.80;92.60;;;;;;5075076;28;19916;-88
2022/10/09 10:11:55;;;;;;;;;;;19.80;92.30;;;;;;5080558;28;20311;-89
2022/10/09 10:14:20;;;;;;;;;;;19.90;93.00;;;;;;5089603;28;19916;-86
2022/10/09 10:16:50;;;;;;;;;;;19.90;93.80;;;;;;5081465;28;19925;-87
2022/10/09 10:19:33;;;;;;;;;;;;;;;;;;;;;
2022/10/09 10:22:28;;;;;;;;;;;20.20;93.70;;;;;;5086429;28;19923;-86
2022/10/09 10:24:54;;;;;;;;;;;20.50;93.00;;;;;;5068290;28;19920;-81
2022/10/09 10:27:29;;;;;;;;;;;20.30;93.20;;;;;;5075512;28;20488;-81
2022/10/09 10:29:56;;;;;;;;;;;20.30;92.80;;;;;;5085666;28;19923;-92
2022/10/09 10:32:25;;;;;;;;;;;20.50;92.40;;;;;;5078333;28;19911;-88
2022/10/09 10:35:01;;;;;;;;;;;20.30;93.40;;;;;;5078212;28;20018;-91
2022/10/09 10:37:30;;;;;;;;;;;20.30;93.50;;;;;;5080196;28;19912;-93
2022/10/09 10:46:33;;;;;;;;;;;20.50;93.70;;;;;;5074102;28;19916;-89
2022/10/09 10:49:01;;;;;;;;;;;20.60;91.20;;;;;;5074113;28;19919;-86
2022/10/09 10:51:35;;;;;;;;;;;20.60;91.80;;;;;;5077227;28;20869;-90
2022/10/09 10:54:04;;;;;;;;;;;20.40;91.40;;;;;;5075660;28;19912;-90
2022/10/09 10:57:08;;;;;;;;;;;20.30;91.00;;;;;;5080971;28;19912;-94
2022/10/09 11:00:04;;;;;;;;;;;;;;;;;;;;;
2022/10/09 11:03:01;;;;;;;;;;;;;;;;;;;;;
2022/10/09 11:05:54;;;;;;;;;;;;;;;;;;;;;
2022/10/09 11:08:29;;;;;;;;;;;20.60;90.50;;;;;;5080579;28;19923;-85
2022/10/09 11:10:55;;;;;;;;;;;20.60;90.40;;;;;;5074500;28;19916;-87
2022/10/09 11:13:21;;;;;;;;;;;20.60;90.10;;;;;;5092516;28;19912;-88
2022/10/09 11:15:46;;;;;;;;;;;20.70;90.50;;;;;;5082398;28;20708;-91
2022/10/09 11:18:24;;;;;;;;;;;20.60;90.20;;;;;;5072397;28;19956;-92
2022/10/09 11:20:52;;;;;;;;;;;20.80;91.10;;;;;;5079002;28;19916;-82
2022/10/09 11:23:30;;;;;;;;;;;20.70;90.90;;;;;;5086034;28;19923;-82
2022/10/09 11:26:13;;;;;;;;;;;20.60;91.10;;;;;;5077122;28;19920;-81
2022/10/09 11:28:44;;;;;;;;;;;20.60;90.70;;;;;;5073783;28;20411;-83
2022/10/09 11:31:15;;;;;;;;;;;20.50;90.70;;;;;;5084880;28;20500;-79
2022/10/09 11:33:44;;;;;;;;;;;20.40;90.20;;;;;;5075122;28;19923;-80
2022/10/09 11:36:19;;;;;;;;;;;20.40;90.90;;;;;;5078725;28;19916;-88
2022/10/09 11:39:07;;;;;;;;;;;20.50;91.70;;;;;;5071431;28;20307;-90
2022/10/09 11:41:36;;;;;;;;;;;20.60;90.80;;;;;;5065031;28;20010;-86
2022/10/09 11:44:17;;;;;;;;;;;20.50;90.70;;;;;;5070395;28;19916;-88
2022/10/09 11:46:51;;;;;;;;;;;20.50;91.50;;;;;;5077524;28;20384;-91
2022/10/09 11:49:27;;;;;;;;;;;20.60;91.20;;;;;;5075070;28;20019;-91
2022/10/09 11:52:02;;;;;;;;;;;20.60;90.60;;;;;;5079323;28;20335;-90
2022/10/09 11:54:28;;;;;;;;;;;20.50;90.30;;;;;;5075380;28;20038;-89
2022/10/09 11:57:04;;;;;;;;;;;20.60;91.00;;;;;;5083523;28;19985;-90
2022/10/09 11:59:32;;;;;;;;;;;20.50;91.10;;;;;;5074591;28;20001;-91
2022/10/09 12:01:58;;;;;;;;;;;20.70;91.60;;;;;;5079657;28;19912;-90
2022/10/09 12:04:31;;;;;;;;;;;20.60;91.00;;;;;;5075480;28;20058;-91
2022/10/09 12:06:59;;;;;;;;;;;20.50;90.90;;;;;;5075889;28;19954;-90
2022/10/09 12:09:57;;;;;;;;;;;20.50;90.50;;;;;;5079799;28;19917;-89
2022/10/09 12:12:30;;;;;;;;;;;20.70;90.90;;;;;;5059206;28;19920;-89
2022/10/09 12:14:57;;;;;;;;;;;20.70;90.50;;;;;;5076034;28;19912;-89
2022/10/09 12:17:22;;;;;;;;;;;20.70;91.00;;;;;;5068871;28;19912;-89
2022/10/09 12:20:03;;;;;;;;;;;20.70;90.70;;;;;;5070240;28;20295;-89
2022/10/09 12:22:32;;;;;;;;;;;20.80;92.80;;;;;;5071066;28;19917;-89
2022/10/09 12:25:03;;;;;;;;;;;20.80;90.80;;;;;;5082272;28;19920;-90
2022/10/09 12:27:37;;;;;;;;;;;20.90;90.30;;;;;;5073608;28;19917;-88
2022/10/09 12:30:06;;;;;;;;;;;20.90;90.10;;;;;;5071584;28;19916;-84
2022/10/09 12:32:52;;;;;;;;;;;20.90;91.40;;;;;;5073285;28;20307;-86
2022/10/09 12:35:31;;;;;;;;;;;20.90;91.70;;;;;;5067387;28;19912;-87
2022/10/09 12:41:23;;;;;;;;;;;20.80;90.30;;;;;;5057636;28;19936;-81
2022/10/09 12:43:50;;;;;;;;;;;20.90;90.00;;;;;;5047814;28;20074;-82
2022/10/09 12:46:27;;;;;;;;;;;20.90;91.40;;;;;;5069502;28;20084;-81
2022/10/09 12:48:53;;;;;;;;;;;20.90;90.00;;;;;;5072556;28;19966;-92
2022/10/09 12:51:25;;;;;;;;;;;21.00;91.30;;;;;;5072526;28;19918;-93
2022/10/09 12:54:17;;;;;;;;;;;21.10;90.70;;;;;;5077695;28;20386;-95
2022/10/09 12:57:15;;;;;;;;;;;20.90;91.30;;;;;;5075606;28;19916;-86
2022/10/09 12:59:41;;;;;;;;;;;21.00;90.50;;;;;;5058883;28;19912;-85
2022/10/09 13:02:30;;;;;;;;;;;21.00;90.00;;;;;;5072781;28;20419;-87
2022/10/09 13:08:30;;;;;;;;;;;20.80;90.00;;;;;;5062379;28;19963;-87
2022/10/09 13:11:07;;;;;;;;;;;20.80;90.10;;;;;;5068975;28;20019;-86
2022/10/09 13:13:32;;;;;;;;;;;20.80;89.90;;;;;;5070153;28;19959;-86
2022/10/09 13:16:00;;;;;;;;;;;20.80;90.80;;;;;;5075028;28;19917;-87
2022/10/09 13:18:25;;;;;;;;;;;20.90;89.60;;;;;;5078198;28;19919;-86
2022/10/09 13:21:02;;;;;;;;;;;21.10;90.00;;;;;;5082659;28;19923;-84
2022/10/09 13:23:32;;;;;;;;;;;20.90;90.10;;;;;;5074900;28;20029;-86
2022/10/09 13:25:59;;;;;;;;;;;20.80;90.80;;;;;;5075588;28;19916;-86
2022/10/09 13:28:24;;;;;;;;;;;20.90;90.70;;;;;;5073266;28;19916;-85
2022/10/09 13:30:50;;;;;;;;;;;20.80;90.80;;;;;;5072287;28;19972;-87
2022/10/09 13:33:16;;;;;;;;;;;21.00;90.20;;;;;;5068508;28;19919;-85
2022/10/09 13:35:42;;;;;;;;;;;21.00;91.50;;;;;;5069594;28;19917;-85
2022/10/09 13:38:18;;;;;;;;;;;20.80;91.60;;;;;;5072941;28;19913;-86
2022/10/09 13:40:44;;;;;;;;;;;20.70;90.80;;;;;;5069747;28;19924;-88
2022/10/09 13:43:29;;;;;;;;;;;20.90;89.90;;;;;;5067320;28;20652;-86
2022/10/09 13:45:58;;;;;;;;;;;20.90;90.40;;;;;;5069986;28;19924;-86
2022/10/09 13:48:36;;;;;;;;;;;20.80;90.00;;;;;;5079551;28;19938;-89
2022/10/09 13:51:14;;;;;;;;;;;20.80;90.10;;;;;;5072165;28;20390;-88
2022/10/09 13:53:39;;;;;;;;;;;20.70;91.00;;;;;;5077473;28;19916;-87
2022/10/09 13:56:15;;;;;;;;;;;;;;;;;;;;;
2022/10/09 14:01:53;;;;;;;;;;;21.00;88.80;;;;;;5072279;28;20405;-85
2022/10/09 14:04:20;;;;;;;;;;;20.80;88.50;;;;;;5066408;28;20003;-86
2022/10/09 14:06:46;;;;;;;;;;;20.90;89.10;;;;;;5072355;28;19924;-85
2022/10/09 14:09:12;;;;;;;;;;;20.90;89.60;;;;;;5079881;28;20360;-86
2022/10/09 14:11:37;;;;;;;;;;;21.00;86.60;;;;;;5076497;28;19916;-85
2022/10/09 14:14:03;;;;;;;;;;;20.80;87.00;;;;;;5066884;28;19916;-85
2022/10/09 14:16:29;;;;;;;;;;;20.90;89.30;;;;;;5079556;28;19960;-85
2022/10/09 14:18:56;;;;;;;;;;;20.90;88.90;;;;;;5073420;28;19916;-85
2022/10/09 14:21:21;;;;;;;;;;;21.00;86.40;;;;;;5073835;28;20618;-87
2022/10/09 14:23:47;;;;;;;;;;;20.90;88.90;;;;;;5072062;28;19922;-86
2022/10/09 14:26:12;;;;;;;;;;;20.70;87.50;;;;;;5078204;28;19942;-87
2022/10/09 14:28:38;;;;;;;;;;;20.80;87.40;;;;;;5072853;28;19915;-87
2022/10/09 14:31:05;;;;;;;;;;;20.90;87.70;;;;;;5078675;28;19916;-86
2022/10/09 14:33:30;;;;;;;;;;;20.80;86.20;;;;;;5066951;28;20325;-86
2022/10/09 14:35:56;;;;;;;;;;;20.80;88.10;;;;;;5074823;28;19966;-87
2022/10/09 14:38:21;;;;;;;;;;;20.80;87.20;;;;;;5079146;28;19916;-86
2022/10/09 14:40:47;;;;;;;;;;;21.00;86.10;;;;;;5071060;28;19973;-87
2022/10/09 14:43:12;;;;;;;;;;;21.00;86.50;;;;;;5072108;28;19912;-86
2022/10/09 14:45:38;;;;;;;;;;;20.90;85.50;;;;;;5067670;28;19954;-86
2022/10/09 14:48:03;;;;;;;;;;;21.00;85.80;;;;;;5070193;28;19920;-86
2022/10/09 14:50:29;;;;;;;;;;;20.80;85.80;;;;;;5079248;28;19913;-86